Time;durP1;ratioP1;P1;durP2;ratioP2;P2;SDS_P1;SDS_P2;PMS_P1;PMS_P2;Temp;Humidity;BMP_temperature;BMP_pressure;BME280_temperature;BME280_humidity;BME280_pressure;Samples;Min_cycle;Max_cycle;Signal;HPM_P1;HPM_P2
2022/10/01 00:00:45;;;;;;;;;;;14.70;99.90;;;;;;5073256;28;20000;-75
2022/10/01 00:03:11;;;;;;;;;;;14.70;99.90;;;;;;5073735;28;19920;-75
2022/10/01 00:05:37;;;;;;;;;;;14.70;99.90;;;;;;5069365;28;20077;-74
2022/10/01 00:08:02;;;;;;;;;;;14.70;99.90;;;;;;5068325;28;20124;-75
2022/10/01 00:10:29;;;;;;;;;;;14.70;99.90;;;;;;5078712;28;19917;-75
2022/10/01 00:12:54;;;;;;;;;;;14.70;99.90;;;;;;5076103;28;19913;-75
2022/10/01 00:15:20;;;;;;;;;;;14.70;99.90;;;;;;5078326;28;19947;-75
2022/10/01 00:17:46;;;;;;;;;;;14.80;99.90;;;;;;5080280;28;19912;-75
2022/10/01 00:20:11;;;;;;;;;;;14.80;99.90;;;;;;5075784;28;19923;-74
2022/10/01 00:22:37;;;;;;;;;;;14.80;99.90;;;;;;5073584;28;19935;-74
2022/10/01 00:25:04;;;;;;;;;;;14.70;99.90;;;;;;5070892;28;20066;-76
2022/10/01 00:27:30;;;;;;;;;;;14.80;99.90;;;;;;5073555;28;20373;-75
2022/10/01 00:29:56;;;;;;;;;;;14.80;99.90;;;;;;5076391;28;19916;-75
2022/10/01 00:32:22;;;;;;;;;;;14.80;99.90;;;;;;5075666;28;19924;-74
2022/10/01 00:34:52;;;;;;;;;;;14.80;99.90;;;;;;5075695;28;20294;-76
2022/10/01 00:37:19;;;;;;;;;;;14.80;99.90;;;;;;5081692;28;19927;-74
2022/10/01 00:39:45;;;;;;;;;;;14.70;99.90;;;;;;5080892;28;19923;-73
2022/10/01 00:42:18;;;;;;;;;;;14.70;99.90;;;;;;5077949;28;20289;-74
2022/10/01 00:44:43;;;;;;;;;;;14.70;99.90;;;;;;5076498;28;21664;-74
2022/10/01 00:47:22;;;;;;;;;;;14.70;99.90;;;;;;5071725;28;19920;-74
2022/10/01 00:49:49;;;;;;;;;;;14.70;99.90;;;;;;5073140;28;19952;-74
2022/10/01 00:52:17;;;;;;;;;;;14.70;99.90;;;;;;5066993;28;19921;-74
2022/10/01 00:54:49;;;;;;;;;;;14.70;99.90;;;;;;5068030;28;19967;-75
2022/10/01 00:57:17;;;;;;;;;;;14.60;99.90;;;;;;5069749;28;19912;-75
2022/10/01 00:59:44;;;;;;;;;;;14.70;99.90;;;;;;5068418;28;19923;-74
2022/10/01 01:02:10;;;;;;;;;;;14.70;99.90;;;;;;5067401;28;19916;-75
2022/10/01 01:04:38;;;;;;;;;;;14.70;99.90;;;;;;5067089;28;19949;-75
2022/10/01 01:07:05;;;;;;;;;;;14.60;99.90;;;;;;5075716;28;19931;-75
2022/10/01 01:09:39;;;;;;;;;;;14.60;99.90;;;;;;5077535;28;19921;-75
2022/10/01 01:12:18;;;;;;;;;;;14.60;99.90;;;;;;5074380;28;20439;-75
2022/10/01 01:14:44;;;;;;;;;;;14.60;99.90;;;;;;5071002;28;19919;-75
2022/10/01 01:17:13;;;;;;;;;;;14.50;99.90;;;;;;5072229;28;19939;-75
2022/10/01 01:20:02;;;;;;;;;;;14.60;99.90;;;;;;5070671;28;19920;-74
2022/10/01 01:22:31;;;;;;;;;;;14.60;99.90;;;;;;5067040;28;20273;-74
2022/10/01 01:25:06;;;;;;;;;;;14.50;99.90;;;;;;5064351;28;20146;-75
2022/10/01 01:27:44;;;;;;;;;;;14.50;99.90;;;;;;5065834;28;20351;-75
2022/10/01 01:30:11;;;;;;;;;;;14.40;99.90;;;;;;5065792;28;19913;-75
2022/10/01 01:32:40;;;;;;;;;;;14.40;99.90;;;;;;5071980;28;19912;-75
2022/10/01 01:35:07;;;;;;;;;;;14.40;99.90;;;;;;5070659;28;19952;-75
2022/10/01 01:37:36;;;;;;;;;;;14.40;99.90;;;;;;5070429;28;19916;-75
2022/10/01 01:40:04;;;;;;;;;;;14.40;99.90;;;;;;5070560;28;19917;-76
2022/10/01 01:42:34;;;;;;;;;;;14.40;99.90;;;;;;5052963;28;19913;-75
2022/10/01 01:45:00;;;;;;;;;;;14.40;99.90;;;;;;5070206;28;19946;-73
2022/10/01 01:47:31;;;;;;;;;;;14.40;99.90;;;;;;5067548;28;20030;-73
2022/10/01 01:49:57;;;;;;;;;;;14.40;99.90;;;;;;5064525;28;19917;-74
2022/10/01 01:52:23;;;;;;;;;;;14.40;99.90;;;;;;5074600;28;20917;-74
2022/10/01 01:54:49;;;;;;;;;;;14.40;99.90;;;;;;5074317;28;20011;-74
2022/10/01 01:57:18;;;;;;;;;;;14.50;99.90;;;;;;5082494;28;19913;-75
2022/10/01 01:59:44;;;;;;;;;;;14.40;99.90;;;;;;5084227;28;19912;-75
2022/10/01 02:02:14;;;;;;;;;;;14.50;99.90;;;;;;5087405;28;19938;-74
2022/10/01 02:04:44;;;;;;;;;;;14.40;99.90;;;;;;5085579;28;19905;-74
2022/10/01 02:07:10;;;;;;;;;;;14.40;99.90;;;;;;5088066;28;19923;-74
2022/10/01 02:09:43;;;;;;;;;;;14.40;99.90;;;;;;5087193;28;19920;-74
2022/10/01 02:12:09;;;;;;;;;;;14.40;99.90;;;;;;5090475;28;19915;-73
2022/10/01 02:14:43;;;;;;;;;;;14.40;99.90;;;;;;5083196;28;20298;-73
2022/10/01 02:17:15;;;;;;;;;;;14.50;99.90;;;;;;5075231;28;19909;-74
2022/10/01 02:20:01;;;;;;;;;;;14.50;99.90;;;;;;5080661;28;19913;-75
2022/10/01 02:22:36;;;;;;;;;;;14.50;99.90;;;;;;5071786;28;19931;-74
2022/10/01 02:25:03;;;;;;;;;;;14.50;99.90;;;;;;5075148;28;19959;-75
2022/10/01 02:27:31;;;;;;;;;;;14.50;99.90;;;;;;5080491;28;19927;-74
2022/10/01 02:29:59;;;;;;;;;;;14.60;99.90;;;;;;5081994;28;19920;-74
2022/10/01 02:32:25;;;;;;;;;;;14.60;99.90;;;;;;5081698;28;20007;-75
2022/10/01 02:34:52;;;;;;;;;;;14.60;99.90;;;;;;5076934;28;19998;-74
2022/10/01 02:37:20;;;;;;;;;;;14.60;99.90;;;;;;5074182;28;19919;-74
2022/10/01 02:39:46;;;;;;;;;;;14.60;99.90;;;;;;5079564;28;20445;-74
2022/10/01 02:42:13;;;;;;;;;;;14.50;99.90;;;;;;5078220;28;19939;-74
2022/10/01 02:44:41;;;;;;;;;;;14.50;99.90;;;;;;5074600;28;19925;-74
2022/10/01 02:47:19;;;;;;;;;;;14.50;99.90;;;;;;5071945;28;20381;-76
2022/10/01 02:49:45;;;;;;;;;;;14.50;99.90;;;;;;5076852;28;20003;-75
2022/10/01 02:52:33;;;;;;;;;;;14.50;99.90;;;;;;5075745;28;19919;-74
2022/10/01 02:55:02;;;;;;;;;;;14.40;99.90;;;;;;5074157;28;20023;-75
2022/10/01 02:57:28;;;;;;;;;;;14.40;99.90;;;;;;5074913;28;19912;-74
2022/10/01 02:59:58;;;;;;;;;;;14.40;99.90;;;;;;5073550;28;19959;-74
2022/10/01 03:02:26;;;;;;;;;;;14.40;99.90;;;;;;5069101;28;19916;-74
2022/10/01 03:04:55;;;;;;;;;;;14.40;99.90;;;;;;5067296;28;19945;-75
2022/10/01 03:07:21;;;;;;;;;;;14.40;99.90;;;;;;5067016;28;19944;-74
2022/10/01 03:09:48;;;;;;;;;;;14.40;99.90;;;;;;5068131;28;19913;-74
2022/10/01 03:12:15;;;;;;;;;;;14.40;99.90;;;;;;5063449;28;19951;-75
2022/10/01 03:14:42;;;;;;;;;;;14.30;99.90;;;;;;5064900;28;19966;-74
2022/10/01 03:17:08;;;;;;;;;;;14.40;99.90;;;;;;5063452;28;19923;-75
2022/10/01 03:19:34;;;;;;;;;;;14.40;99.90;;;;;;5064473;28;19924;-73
2022/10/01 03:22:00;;;;;;;;;;;14.40;99.90;;;;;;5064019;28;19920;-74
2022/10/01 03:24:25;;;;;;;;;;;14.40;99.90;;;;;;5066352;28;20350;-74
2022/10/01 03:26:51;;;;;;;;;;;14.30;99.90;;;;;;5064940;28;19917;-75
2022/10/01 03:29:17;;;;;;;;;;;14.30;99.90;;;;;;5067547;28;19920;-73
2022/10/01 03:31:42;;;;;;;;;;;14.30;99.90;;;;;;5072625;28;19913;-75
2022/10/01 03:34:08;;;;;;;;;;;14.20;99.90;;;;;;5071736;28;19938;-74
2022/10/01 03:36:33;;;;;;;;;;;14.20;99.90;;;;;;5070179;28;19916;-74
2022/10/01 03:38:59;;;;;;;;;;;14.30;99.90;;;;;;5070445;28;19912;-74
2022/10/01 03:41:24;;;;;;;;;;;14.20;99.90;;;;;;5067819;28;20330;-74
2022/10/01 03:43:50;;;;;;;;;;;14.20;99.90;;;;;;5072027;28;19995;-74
2022/10/01 03:46:16;;;;;;;;;;;14.10;99.90;;;;;;5072911;28;19963;-74
2022/10/01 03:48:42;;;;;;;;;;;14.00;99.90;;;;;;5072315;28;19916;-74
2022/10/01 03:51:07;;;;;;;;;;;14.10;99.90;;;;;;5068024;28;19921;-73
2022/10/01 03:53:33;;;;;;;;;;;14.10;99.90;;;;;;5064893;28;20275;-74
2022/10/01 03:55:59;;;;;;;;;;;14.20;99.90;;;;;;5065986;28;19913;-74
2022/10/01 03:58:25;;;;;;;;;;;14.10;99.90;;;;;;5068970;28;19912;-74
2022/10/01 04:00:50;;;;;;;;;;;14.10;99.90;;;;;;5075349;28;19912;-73
2022/10/01 04:03:16;;;;;;;;;;;14.00;99.90;;;;;;5075103;28;19938;-74
2022/10/01 04:05:42;;;;;;;;;;;14.00;99.90;;;;;;5054291;28;19916;-73
2022/10/01 04:08:08;;;;;;;;;;;14.00;99.90;;;;;;5067070;28;20293;-74
2022/10/01 04:10:34;;;;;;;;;;;14.00;99.90;;;;;;5060028;28;19912;-74
2022/10/01 04:13:00;;;;;;;;;;;14.00;99.90;;;;;;5079809;28;19972;-74
2022/10/01 04:15:25;;;;;;;;;;;14.00;99.90;;;;;;5082075;28;19916;-73
2022/10/01 04:17:51;;;;;;;;;;;14.10;99.90;;;;;;5077695;28;19926;-74
2022/10/01 04:20:17;;;;;;;;;;;14.10;99.90;;;;;;5074383;28;19917;-74
2022/10/01 04:22:43;;;;;;;;;;;14.00;99.90;;;;;;5075819;28;19912;-74
2022/10/01 04:25:12;;;;;;;;;;;14.10;99.90;;;;;;5079415;28;19932;-75
2022/10/01 04:27:38;;;;;;;;;;;14.10;99.90;;;;;;5063237;28;20789;-74
2022/10/01 04:30:04;;;;;;;;;;;14.20;99.90;;;;;;5081041;28;19977;-74
2022/10/01 04:32:30;;;;;;;;;;;14.20;99.90;;;;;;5068518;28;20334;-74
2022/10/01 04:34:56;;;;;;;;;;;14.30;99.90;;;;;;5071461;28;19918;-75
2022/10/01 04:37:22;;;;;;;;;;;14.40;99.90;;;;;;5070882;28;19912;-75
2022/10/01 04:39:47;;;;;;;;;;;14.40;99.90;;;;;;5082184;28;19991;-76
2022/10/01 04:42:13;;;;;;;;;;;14.40;99.90;;;;;;5082591;28;19917;-74
2022/10/01 04:44:38;;;;;;;;;;;14.40;99.90;;;;;;5077340;28;19921;-74
2022/10/01 04:47:04;;;;;;;;;;;14.40;99.90;;;;;;5078823;28;19912;-74
2022/10/01 04:49:31;;;;;;;;;;;14.30;99.90;;;;;;5080376;28;19918;-75
2022/10/01 04:51:57;;;;;;;;;;;14.30;99.90;;;;;;5078092;28;19959;-76
2022/10/01 04:54:23;;;;;;;;;;;14.30;99.90;;;;;;5067566;28;19931;-74
2022/10/01 04:56:48;;;;;;;;;;;14.20;99.90;;;;;;5076278;28;19913;-75
2022/10/01 04:59:13;;;;;;;;;;;14.20;99.90;;;;;;5087811;28;19966;-75
2022/10/01 05:01:40;;;;;;;;;;;14.20;99.90;;;;;;5090374;28;19920;-75
2022/10/01 05:04:07;;;;;;;;;;;14.10;99.90;;;;;;5090240;28;19912;-77
2022/10/01 05:06:33;;;;;;;;;;;14.00;99.90;;;;;;5084801;28;19936;-74
2022/10/01 05:08:59;;;;;;;;;;;14.00;99.90;;;;;;5082486;28;19920;-74
2022/10/01 05:11:24;;;;;;;;;;;13.90;99.90;;;;;;5081541;28;19913;-75
2022/10/01 05:13:50;;;;;;;;;;;14.00;99.90;;;;;;5082091;28;20243;-75
2022/10/01 05:16:15;;;;;;;;;;;14.00;99.90;;;;;;5075282;28;19984;-74
2022/10/01 05:18:42;;;;;;;;;;;13.90;99.90;;;;;;5080677;28;19912;-75
2022/10/01 05:21:10;;;;;;;;;;;13.90;99.90;;;;;;5081810;28;19931;-75
2022/10/01 05:23:36;;;;;;;;;;;13.90;99.90;;;;;;5077155;28;20014;-76
2022/10/01 05:26:04;;;;;;;;;;;13.80;99.90;;;;;;5078590;28;19912;-73
2022/10/01 05:28:30;;;;;;;;;;;13.80;99.90;;;;;;5072072;28;19916;-76
2022/10/01 05:30:59;;;;;;;;;;;13.80;99.90;;;;;;5075600;28;19993;-76
2022/10/01 05:33:26;;;;;;;;;;;13.70;99.90;;;;;;5075130;28;19913;-75
2022/10/01 05:35:52;;;;;;;;;;;13.70;99.90;;;;;;5080883;28;20389;-75
2022/10/01 05:38:17;;;;;;;;;;;13.70;99.90;;;;;;5078736;28;19913;-75
2022/10/01 05:40:46;;;;;;;;;;;13.60;99.90;;;;;;5076041;28;19919;-75
2022/10/01 05:43:12;;;;;;;;;;;13.70;99.90;;;;;;5080870;28;20333;-75
2022/10/01 05:45:38;;;;;;;;;;;13.60;99.90;;;;;;5062929;28;19929;-75
2022/10/01 05:48:05;;;;;;;;;;;13.60;99.90;;;;;;5080306;28;19961;-75
2022/10/01 05:50:31;;;;;;;;;;;13.60;99.90;;;;;;5076449;28;20459;-74
2022/10/01 05:52:58;;;;;;;;;;;13.60;99.90;;;;;;5079324;28;19923;-75
2022/10/01 05:55:24;;;;;;;;;;;13.60;99.90;;;;;;5077402;28;19934;-75
2022/10/01 05:57:56;;;;;;;;;;;13.70;99.90;;;;;;5085204;28;20505;-76
2022/10/01 06:00:22;;;;;;;;;;;13.60;99.90;;;;;;5075965;28;20989;-76
2022/10/01 06:03:06;;;;;;;;;;;13.70;99.90;;;;;;5058814;28;19920;-76
2022/10/01 06:05:34;;;;;;;;;;;13.60;99.90;;;;;;5079791;28;20008;-75
2022/10/01 06:08:00;;;;;;;;;;;13.60;99.90;;;;;;5076129;28;19919;-74
2022/10/01 06:10:28;;;;;;;;;;;13.60;99.90;;;;;;5081155;28;19912;-74
2022/10/01 06:12:57;;;;;;;;;;;13.60;99.90;;;;;;5077957;28;20413;-75
2022/10/01 06:15:23;;;;;;;;;;;13.50;99.90;;;;;;5077516;28;19913;-76
2022/10/01 06:17:48;;;;;;;;;;;13.50;99.90;;;;;;5077887;28;19928;-75
2022/10/01 06:20:15;;;;;;;;;;;13.50;99.90;;;;;;5077554;28;20301;-75
2022/10/01 06:22:41;;;;;;;;;;;13.50;99.90;;;;;;5077209;28;20164;-74
2022/10/01 06:25:08;;;;;;;;;;;13.50;99.90;;;;;;5076671;28;19947;-74
2022/10/01 06:27:34;;;;;;;;;;;13.50;99.90;;;;;;5076418;28;19921;-75
2022/10/01 06:29:59;;;;;;;;;;;13.60;99.90;;;;;;5080843;28;19989;-75
2022/10/01 06:32:25;;;;;;;;;;;13.60;99.90;;;;;;5079254;28;19913;-75
2022/10/01 06:34:51;;;;;;;;;;;13.60;99.90;;;;;;5073247;28;19913;-74
2022/10/01 06:37:16;;;;;;;;;;;13.60;99.90;;;;;;5076262;28;19981;-75
2022/10/01 06:39:43;;;;;;;;;;;13.50;99.90;;;;;;5076137;28;20386;-76
2022/10/01 06:42:08;;;;;;;;;;;13.50;99.90;;;;;;5073789;28;19962;-75
2022/10/01 06:44:34;;;;;;;;;;;13.50;99.90;;;;;;5078730;28;19920;-75
2022/10/01 06:47:00;;;;;;;;;;;13.50;99.90;;;;;;5075933;28;19923;-75
2022/10/01 06:49:25;;;;;;;;;;;13.50;99.90;;;;;;5077552;28;19924;-77
2022/10/01 06:54:35;;;;;;;;;;;13.50;99.90;;;;;;5154012;23;19930;-64
2022/10/01 06:57:01;;;;;;;;;;;13.50;99.90;;;;;;5059100;28;19912;-66
2022/10/01 06:59:26;;;;;;;;;;;13.60;99.90;;;;;;5064710;28;19923;-65
2022/10/01 07:01:52;;;;;;;;;;;13.60;99.90;;;;;;5064538;28;19917;-64
2022/10/01 07:04:20;;;;;;;;;;;13.70;99.90;;;;;;5063050;28;20212;-64
2022/10/01 07:06:45;;;;;;;;;;;13.80;99.90;;;;;;5063836;28;19912;-63
2022/10/01 07:09:11;;;;;;;;;;;13.80;99.90;;;;;;5060277;28;20237;-63
2022/10/01 07:11:40;;;;;;;;;;;13.90;99.90;;;;;;5061199;28;20011;-64
2022/10/01 07:14:08;;;;;;;;;;;13.90;99.90;;;;;;5058777;28;19966;-63
2022/10/01 07:16:36;;;;;;;;;;;14.00;99.90;;;;;;5060956;28;19916;-64
2022/10/01 07:19:02;;;;;;;;;;;14.10;99.90;;;;;;5046575;28;19919;-66
2022/10/01 07:21:27;;;;;;;;;;;14.20;99.90;;;;;;5063102;28;19920;-64
2022/10/01 07:23:53;;;;;;;;;;;14.20;99.90;;;;;;5062665;28;19963;-64
2022/10/01 07:26:18;;;;;;;;;;;14.30;99.90;;;;;;5060776;28;19927;-64
2022/10/01 07:28:45;;;;;;;;;;;14.40;99.90;;;;;;5063728;28;20003;-64
2022/10/01 07:31:11;;;;;;;;;;;14.50;99.90;;;;;;5061374;28;19920;-64
2022/10/01 07:33:37;;;;;;;;;;;14.50;99.90;;;;;;5062435;28;20354;-66
2022/10/01 07:36:03;;;;;;;;;;;14.60;99.90;;;;;;5058735;28;19943;-64
2022/10/01 07:38:29;;;;;;;;;;;14.50;99.90;;;;;;5061153;28;19952;-63
2022/10/01 07:40:54;;;;;;;;;;;14.50;99.90;;;;;;5059246;28;20377;-65
2022/10/01 07:43:20;;;;;;;;;;;14.60;99.90;;;;;;5056816;28;19987;-64
2022/10/01 07:45:46;;;;;;;;;;;14.50;99.90;;;;;;5040816;28;20366;-64
2022/10/01 07:48:12;;;;;;;;;;;14.50;99.90;;;;;;5062063;28;19913;-66
2022/10/01 07:50:38;;;;;;;;;;;14.50;99.90;;;;;;5060222;28;19916;-66
2022/10/01 07:53:03;;;;;;;;;;;14.50;99.90;;;;;;5048204;28;19920;-64
2022/10/01 07:55:29;;;;;;;;;;;14.60;99.90;;;;;;5061007;28;20106;-64
2022/10/01 07:57:56;;;;;;;;;;;14.60;99.90;;;;;;5061668;28;20436;-65
2022/10/01 08:00:23;;;;;;;;;;;14.70;99.90;;;;;;5062174;28;21986;-65
2022/10/01 08:02:50;;;;;;;;;;;14.80;99.90;;;;;;5060069;28;19916;-64
2022/10/01 08:05:16;;;;;;;;;;;14.80;99.90;;;;;;5064547;28;19924;-65
2022/10/01 08:07:42;;;;;;;;;;;14.80;99.90;;;;;;5059313;28;19913;-65
2022/10/01 08:10:07;;;;;;;;;;;14.90;99.90;;;;;;5059793;28;19919;-66
2022/10/01 08:12:33;;;;;;;;;;;14.90;99.90;;;;;;5060073;28;19916;-65
2022/10/01 08:15:01;;;;;;;;;;;14.90;99.90;;;;;;5060942;28;19999;-67
2022/10/01 08:17:26;;;;;;;;;;;15.00;99.90;;;;;;5039802;28;19920;-65
2022/10/01 08:19:53;;;;;;;;;;;15.00;99.90;;;;;;5064797;28;19919;-64
2022/10/01 08:22:18;;;;;;;;;;;15.10;99.90;;;;;;5062085;28;20251;-65
2022/10/01 08:24:44;;;;;;;;;;;15.20;99.90;;;;;;5061675;28;19924;-65
2022/10/01 08:27:10;;;;;;;;;;;15.20;99.90;;;;;;5058918;28;20346;-64
2022/10/01 08:29:35;;;;;;;;;;;15.30;99.90;;;;;;5062219;28;19912;-64
2022/10/01 08:32:01;;;;;;;;;;;15.40;99.90;;;;;;5062114;28;19928;-64
2022/10/01 08:34:26;;;;;;;;;;;15.60;99.90;;;;;;5060240;28;20343;-66
2022/10/01 08:36:52;;;;;;;;;;;15.70;99.90;;;;;;5058861;28;19943;-66
2022/10/01 08:39:17;;;;;;;;;;;15.70;99.90;;;;;;5060671;28;21451;-65
2022/10/01 08:41:52;;;;;;;;;;;15.80;99.90;;;;;;5060165;28;19966;-65
2022/10/01 08:44:20;;;;;;;;;;;15.80;99.90;;;;;;5056766;28;19963;-65
2022/10/01 08:46:46;;;;;;;;;;;15.70;99.90;;;;;;5062392;28;20243;-66
2022/10/01 08:49:19;;;;;;;;;;;15.80;99.90;;;;;;5043018;28;19969;-65
2022/10/01 08:52:20;;;;;;;;;;;15.80;99.90;;;;;;5058349;28;19916;-64
2022/10/01 08:55:04;;;;;;;;;;;15.80;99.90;;;;;;4982753;28;19926;-63
2022/10/01 08:57:31;;;;;;;;;;;15.80;99.90;;;;;;5058910;28;19923;-65
2022/10/01 08:59:58;;;;;;;;;;;15.80;99.90;;;;;;5067023;28;19916;-66
2022/10/01 09:02:25;;;;;;;;;;;15.70;99.90;;;;;;5069769;28;19920;-64
2022/10/01 09:04:53;;;;;;;;;;;15.80;99.90;;;;;;5067167;28;20329;-65
2022/10/01 09:07:28;;;;;;;;;;;15.80;99.90;;;;;;5066636;28;20373;-65
2022/10/01 09:09:58;;;;;;;;;;;15.70;99.90;;;;;;5066041;28;19912;-65
2022/10/01 09:12:44;;;;;;;;;;;15.80;99.90;;;;;;5069753;28;19919;-64
2022/10/01 09:15:16;;;;;;;;;;;15.80;99.90;;;;;;5048629;28;19913;-65
2022/10/01 09:17:47;;;;;;;;;;;15.70;99.90;;;;;;5063881;28;19916;-65
2022/10/01 09:20:22;;;;;;;;;;;15.70;99.90;;;;;;5062752;28;20358;-65
2022/10/01 09:23:14;;;;;;;;;;;15.80;99.90;;;;;;5046656;28;20128;-65
2022/10/01 09:25:42;;;;;;;;;;;15.80;99.90;;;;;;5045082;28;19963;-65
2022/10/01 09:28:15;;;;;;;;;;;15.80;99.90;;;;;;5063321;28;19932;-64
2022/10/01 09:30:48;;;;;;;;;;;15.90;99.90;;;;;;5065279;28;21032;-65
2022/10/01 09:33:19;;;;;;;;;;;15.80;99.90;;;;;;5063888;28;19955;-66
2022/10/01 09:36:03;;;;;;;;;;;15.80;99.90;;;;;;5050483;28;19916;-65
2022/10/01 09:38:45;;;;;;;;;;;15.80;99.90;;;;;;5063566;28;19986;-65
2022/10/01 09:41:11;;;;;;;;;;;15.80;99.90;;;;;;5068505;28;20041;-64
2022/10/01 09:43:38;;;;;;;;;;;15.90;99.90;;;;;;5064989;28;19912;-65
2022/10/01 09:46:12;;;;;;;;;;;16.00;99.90;;;;;;5065799;28;19952;-65
2022/10/01 09:48:55;;;;;;;;;;;16.00;99.90;;;;;;5063972;28;19916;-64
2022/10/01 09:51:38;;;;;;;;;;;16.10;99.90;;;;;;5064510;28;19920;-65
2022/10/01 09:54:14;;;;;;;;;;;16.00;99.90;;;;;;5064641;28;19917;-65
2022/10/01 09:56:46;;;;;;;;;;;16.00;99.90;;;;;;5064229;28;19924;-65
2022/10/01 09:59:16;;;;;;;;;;;16.10;99.90;;;;;;5068548;28;19966;-65
2022/10/01 10:01:47;;;;;;;;;;;16.20;99.90;;;;;;5051320;28;20409;-65
2022/10/01 10:04:20;;;;;;;;;;;16.20;99.90;;;;;;5064433;28;19920;-65
2022/10/01 10:06:46;;;;;;;;;;;16.30;99.90;;;;;;5045915;28;19942;-64
2022/10/01 10:09:16;;;;;;;;;;;16.30;99.90;;;;;;5063002;28;19919;-64
2022/10/01 10:11:42;;;;;;;;;;;16.30;99.90;;;;;;5064897;28;19917;-65
2022/10/01 10:14:19;;;;;;;;;;;16.30;99.90;;;;;;5069985;28;19912;-64
2022/10/01 10:16:46;;;;;;;;;;;16.30;99.90;;;;;;5063292;28;19938;-64
2022/10/01 10:19:28;;;;;;;;;;;16.40;99.90;;;;;;5049193;28;19919;-65
2022/10/01 10:21:59;;;;;;;;;;;16.50;99.90;;;;;;5069529;28;20376;-65
2022/10/01 10:24:33;;;;;;;;;;;16.60;99.90;;;;;;5068838;28;20022;-65
2022/10/01 10:26:59;;;;;;;;;;;16.80;99.90;;;;;;5048628;28;20318;-65
2022/10/01 10:29:35;;;;;;;;;;;17.00;99.90;;;;;;5064497;28;19913;-64
2022/10/01 10:32:11;;;;;;;;;;;17.10;99.90;;;;;;5063753;28;20007;-65
2022/10/01 10:34:37;;;;;;;;;;;17.20;99.90;;;;;;5064351;28;19912;-64
2022/10/01 10:37:05;;;;;;;;;;;17.40;99.90;;;;;;5064866;28;20015;-65
2022/10/01 10:39:35;;;;;;;;;;;17.40;99.90;;;;;;5066816;28;19939;-65
2022/10/01 10:42:02;;;;;;;;;;;17.50;99.90;;;;;;5063103;28;19991;-66
2022/10/01 10:44:33;;;;;;;;;;;17.50;99.90;;;;;;5063645;28;19929;-64
2022/10/01 10:47:01;;;;;;;;;;;17.50;99.90;;;;;;5060527;28;19946;-65
2022/10/01 10:49:30;;;;;;;;;;;17.60;99.90;;;;;;5041059;28;19943;-65
2022/10/01 10:51:59;;;;;;;;;;;17.70;99.90;;;;;;5058667;28;20604;-66
2022/10/01 10:54:32;;;;;;;;;;;17.60;99.90;;;;;;5062623;28;19960;-66
2022/10/01 10:57:19;;;;;;;;;;;17.60;99.90;;;;;;5041234;28;19913;-65
2022/10/01 10:59:58;;;;;;;;;;;17.70;99.90;;;;;;5059833;28;19916;-64
2022/10/01 11:02:25;;;;;;;;;;;17.70;99.90;;;;;;5059519;28;19919;-64
2022/10/01 11:04:52;;;;;;;;;;;17.70;99.90;;;;;;5054701;28;19947;-64
2022/10/01 11:07:22;;;;;;;;;;;17.80;99.90;;;;;;5059024;28;19946;-64
2022/10/01 11:09:53;;;;;;;;;;;17.90;99.90;;;;;;5063506;28;19920;-65
2022/10/01 11:12:48;;;;;;;;;;;18.00;99.90;;;;;;5059841;28;19969;-66
2022/10/01 11:15:26;;;;;;;;;;;18.10;99.90;;;;;;5045585;28;19920;-65
2022/10/01 11:17:57;;;;;;;;;;;18.10;99.90;;;;;;5060426;28;19989;-65
2022/10/01 11:20:38;;;;;;;;;;;18.00;99.90;;;;;;5039916;28;19928;-65
2022/10/01 11:23:16;;;;;;;;;;;18.00;99.90;;;;;;5063582;28;19949;-65
2022/10/01 11:25:48;;;;;;;;;;;18.10;99.90;;;;;;5059256;28;21395;-65
2022/10/01 11:28:22;;;;;;;;;;;18.20;99.90;;;;;;5058328;28;19938;-65
2022/10/01 11:31:16;;;;;;;;;;;18.30;99.90;;;;;;5056471;28;19912;-65
2022/10/01 11:33:59;;;;;;;;;;;18.40;99.90;;;;;;5047925;28;19960;-63
2022/10/01 11:36:24;;;;;;;;;;;18.50;99.90;;;;;;5061711;28;20350;-64
2022/10/01 11:38:56;;;;;;;;;;;18.60;99.90;;;;;;5057317;28;19966;-65
2022/10/01 11:41:42;;;;;;;;;;;18.70;99.90;;;;;;5060063;28;19917;-65
2022/10/01 11:44:26;;;;;;;;;;;18.90;99.90;;;;;;5039465;28;20368;-66
2022/10/01 11:46:55;;;;;;;;;;;19.00;99.90;;;;;;5063653;28;19917;-65
2022/10/01 11:49:25;;;;;;;;;;;18.90;99.90;;;;;;5042280;28;19919;-65
2022/10/01 11:52:11;;;;;;;;;;;18.90;99.90;;;;;;5062227;28;20278;-65
2022/10/01 11:54:39;;;;;;;;;;;18.80;99.90;;;;;;5057752;28;19916;-65
2022/10/01 12:00:03;;;;;;;;;;;18.10;99.90;;;;;;5060090;28;19920;-65
2022/10/01 12:02:43;;;;;;;;;;;17.90;99.90;;;;;;5064395;28;19913;-67
2022/10/01 12:05:14;;;;;;;;;;;17.80;99.90;;;;;;5060963;28;19925;-67
2022/10/01 12:07:48;;;;;;;;;;;17.80;99.90;;;;;;5057406;28;20010;-67
2022/10/01 12:10:23;;;;;;;;;;;17.80;99.90;;;;;;5060986;28;19913;-65
2022/10/01 12:13:02;;;;;;;;;;;17.80;99.90;;;;;;5056422;28;20375;-66
2022/10/01 12:15:27;;;;;;;;;;;17.80;99.90;;;;;;5031748;28;19920;-66
2022/10/01 12:18:13;;;;;;;;;;;17.80;99.90;;;;;;5063445;28;19999;-66
2022/10/01 12:20:47;;;;;;;;;;;17.90;99.90;;;;;;5018809;28;19917;-65
2022/10/01 12:23:14;;;;;;;;;;;18.00;99.90;;;;;;5062735;28;19920;-66
2022/10/01 12:25:58;;;;;;;;;;;18.00;99.90;;;;;;5041777;28;19924;-65
2022/10/01 12:28:28;;;;;;;;;;;17.90;99.90;;;;;;5062188;28;19919;-64
2022/10/01 12:30:55;;;;;;;;;;;17.90;99.90;;;;;;5060152;28;19916;-65
2022/10/01 12:33:28;;;;;;;;;;;18.00;99.90;;;;;;5062858;28;19995;-66
2022/10/01 12:36:05;;;;;;;;;;;18.30;99.90;;;;;;5063859;28;19916;-67
2022/10/01 12:38:31;;;;;;;;;;;18.40;99.90;;;;;;5060829;28;20921;-65
2022/10/01 12:40:59;;;;;;;;;;;18.40;99.90;;;;;;5068038;28;19913;-65
2022/10/01 12:43:46;;;;;;;;;;;18.40;99.90;;;;;;5059574;28;19913;-64
2022/10/01 12:46:18;;;;;;;;;;;18.30;99.90;;;;;;5061191;28;19924;-65
2022/10/01 12:48:48;;;;;;;;;;;18.10;99.90;;;;;;5061739;28;20380;-65
2022/10/01 12:51:16;;;;;;;;;;;18.00;99.90;;;;;;5059008;28;19912;-65
2022/10/01 12:54:05;;;;;;;;;;;18.00;99.90;;;;;;5059720;28;19921;-66
2022/10/01 12:56:32;;;;;;;;;;;17.90;99.90;;;;;;5048852;28;19934;-64
2022/10/01 12:58:58;;;;;;;;;;;18.10;99.90;;;;;;5065115;28;19912;-65
2022/10/01 13:01:39;;;;;;;;;;;18.00;99.90;;;;;;5062823;28;19949;-64
2022/10/01 13:04:23;;;;;;;;;;;17.90;99.90;;;;;;5060364;28;20068;-65
2022/10/01 13:07:07;;;;;;;;;;;17.90;99.90;;;;;;5064149;28;19912;-65
2022/10/01 13:09:39;;;;;;;;;;;18.10;99.90;;;;;;5062969;28;19982;-65
2022/10/01 13:12:07;;;;;;;;;;;18.20;99.90;;;;;;5061554;28;19924;-64
2022/10/01 13:14:33;;;;;;;;;;;18.00;99.90;;;;;;5045525;28;19920;-65
2022/10/01 13:17:06;;;;;;;;;;;18.00;99.90;;;;;;5062671;28;19912;-65
2022/10/01 13:19:41;;;;;;;;;;;18.10;99.90;;;;;;5058899;28;20009;-64
2022/10/01 13:22:25;;;;;;;;;;;18.10;99.90;;;;;;5065813;28;19936;-64
2022/10/01 13:24:59;;;;;;;;;;;18.20;99.90;;;;;;5064408;28;19978;-64
2022/10/01 13:27:32;;;;;;;;;;;18.20;99.90;;;;;;5065334;28;19913;-65
2022/10/01 13:30:18;;;;;;;;;;;18.00;99.90;;;;;;5042576;28;20011;-65
2022/10/01 13:32:48;;;;;;;;;;;18.00;99.90;;;;;;5076782;28;19905;-64
2022/10/01 13:35:20;;;;;;;;;;;18.00;99.90;;;;;;5060975;28;21317;-64
2022/10/01 13:37:46;;;;;;;;;;;18.00;99.90;;;;;;5063218;28;20388;-65
2022/10/01 13:40:31;;;;;;;;;;;18.10;99.90;;;;;;5067941;28;20001;-64
2022/10/01 13:43:15;;;;;;;;;;;18.10;99.90;;;;;;5068325;28;20227;-65
2022/10/01 13:45:42;;;;;;;;;;;18.20;99.90;;;;;;5057430;28;19928;-64
2022/10/01 13:48:18;;;;;;;;;;;18.20;99.70;;;;;;5064606;28;19921;-64
2022/10/01 13:51:04;;;;;;;;;;;18.20;99.90;;;;;;5065378;28;19962;-65
2022/10/01 13:53:31;;;;;;;;;;;18.20;99.50;;;;;;5061200;28;19920;-66
2022/10/01 13:55:57;;;;;;;;;;;18.20;99.90;;;;;;5065346;28;19924;-64
2022/10/01 13:58:32;;;;;;;;;;;18.20;99.90;;;;;;5068384;28;19912;-64
2022/10/01 14:00:59;;;;;;;;;;;18.10;99.90;;;;;;5063490;28;19919;-64
2022/10/01 14:03:43;;;;;;;;;;;17.90;99.90;;;;;;5060039;28;19913;-63
2022/10/01 14:06:16;;;;;;;;;;;17.70;99.90;;;;;;5063034;28;19927;-62
2022/10/01 14:08:48;;;;;;;;;;;17.60;99.90;;;;;;5071245;28;20065;-64
2022/10/01 14:16:52;;;;;;;;;;;17.60;99.90;;;;;;5068894;28;20014;-64
2022/10/01 14:19:19;;;;;;;;;;;17.70;99.90;;;;;;5071250;28;19956;-62
2022/10/01 14:21:51;;;;;;;;;;;17.70;99.90;;;;;;5068849;28;19916;-65
2022/10/01 14:24:19;;;;;;;;;;;17.70;99.90;;;;;;5065038;28;19975;-65
2022/10/01 14:26:58;;;;;;;;;;;17.70;99.90;;;;;;5048061;28;20325;-64
2022/10/01 14:29:24;;;;;;;;;;;17.70;99.90;;;;;;5064349;28;19948;-66
2022/10/01 14:31:55;;;;;;;;;;;17.70;99.90;;;;;;5070134;28;19959;-66
2022/10/01 14:34:50;;;;;;;;;;;17.80;99.90;;;;;;5066318;28;20541;-65
2022/10/01 14:37:16;;;;;;;;;;;17.80;99.90;;;;;;5041389;28;19959;-65
2022/10/01 14:39:42;;;;;;;;;;;17.80;99.90;;;;;;5066558;28;20312;-65
2022/10/01 14:42:13;;;;;;;;;;;18.00;99.90;;;;;;5044917;28;19913;-65